LSZS/SMV METAR and TAF weather

Enter ICAO airport designator
Station Type Date Time Source
LSZS METAR 2019/11/18 11:50 UTC NOAA

LSZS 181150Z 16007KT 9999 BKN041 M01/M07 Q1009 R03/19//// RMK K


Station Type Date Time Source
LSZS Decoded METAR 2019/11/18 11:50 UTC NOAA

Station name not available
Nov 18, 2019 - 06:50 AM EST / 2019.11.18 1150 UTC
Wind: from the SSE (160 degrees) at 8 MPH (7 KT):0
Visibility: greater than 7 mile(s):0
Sky conditions: mostly cloudy
Temperature: 30 F (-1 C)
Windchill: 23 F (-5 C):1
Dew Point: 19 F (-7 C)
Relative Humidity: 63%
Pressure (altimeter): 29.80 in. Hg (1009 hPa)
ob: LSZS 181150Z 16007KT 9999 BKN041 M01/M07 Q1009 R03/19//// RMK K
cycle: 12

Station Type Date Time Source
LSZS TAF 2014/12/22 20:03 UTC NOAA

TAF
AMD LSZS 222054Z 2220/2224 CNL

Example: see airport list